sensor_id;sensor_type;location;lat;lon;timestamp;P1;durP1;ratioP1;P2;durP2;ratioP2
51304;SDS011;37392;50.964;6.952;2024-01-30T00:02:23;18.00;;;11.10;;
51304;SDS011;37392;50.964;6.952;2024-01-30T00:04:48;18.95;;;10.23;;
51304;SDS011;37392;50.964;6.952;2024-01-30T00:07:14;20.70;;;10.68;;
51304;SDS011;37392;50.964;6.952;2024-01-30T00:09:40;20.95;;;10.18;;
51304;SDS011;37392;50.964;6.952;2024-01-30T00:12:05;27.15;;;10.43;;
51304;SDS011;37392;50.964;6.952;2024-01-30T00:14:31;18.85;;;10.25;;
51304;SDS011;37392;50.964;6.952;2024-01-30T00:16:57;38.75;;;11.55;;
51304;SDS011;37392;50.964;6.952;2024-01-30T00:19:22;17.85;;;10.20;;
51304;SDS011;37392;50.964;6.952;2024-01-30T00:21:48;19.63;;;11.50;;
51304;SDS011;37392;50.964;6.952;2024-01-30T00:24:14;23.15;;;11.00;;
51304;SDS011;37392;50.964;6.952;2024-01-30T00:26:39;22.27;;;11.18;;
51304;SDS011;37392;50.964;6.952;2024-01-30T00:29:05;20.13;;;10.07;;
51304;SDS011;37392;50.964;6.952;2024-01-30T00:31:30;21.27;;;10.93;;
51304;SDS011;37392;50.964;6.952;2024-01-30T00:33:56;20.92;;;10.85;;
51304;SDS011;37392;50.964;6.952;2024-01-30T00:36:22;22.77;;;10.48;;
51304;SDS011;37392;50.964;6.952;2024-01-30T00:38:47;25.52;;;10.93;;
51304;SDS011;37392;50.964;6.952;2024-01-30T00:41:13;21.17;;;10.88;;
51304;SDS011;37392;50.964;6.952;2024-01-30T00:43:39;19.98;;;11.00;;
51304;SDS011;37392;50.964;6.952;2024-01-30T00:46:04;19.45;;;10.27;;
51304;SDS011;37392;50.964;6.952;2024-01-30T00:48:30;22.83;;;11.25;;
51304;SDS011;37392;50.964;6.952;2024-01-30T00:50:55;20.35;;;9.70;;
51304;SDS011;37392;50.964;6.952;2024-01-30T00:53:21;20.83;;;10.32;;
51304;SDS011;37392;50.964;6.952;2024-01-30T00:55:46;22.55;;;10.43;;
51304;SDS011;37392;50.964;6.952;2024-01-30T00:58:12;26.30;;;11.23;;
51304;SDS011;37392;50.964;6.952;2024-01-30T01:00:38;27.42;;;11.30;;
51304;SDS011;37392;50.964;6.952;2024-01-30T01:03:04;21.30;;;10.88;;
51304;SDS011;37392;50.964;6.952;2024-01-30T01:05:29;23.13;;;10.55;;
51304;SDS011;37392;50.964;6.952;2024-01-30T01:07:55;20.63;;;10.27;;
51304;SDS011;37392;50.964;6.952;2024-01-30T01:10:20;21.70;;;11.07;;
51304;SDS011;37392;50.964;6.952;2024-01-30T01:12:46;23.83;;;9.98;;
51304;SDS011;37392;50.964;6.952;2024-01-30T01:15:13;21.35;;;11.35;;
51304;SDS011;37392;50.964;6.952;2024-01-30T01:17:39;28.58;;;11.05;;
51304;SDS011;37392;50.964;6.952;2024-01-30T01:20:05;23.65;;;10.27;;
51304;SDS011;37392;50.964;6.952;2024-01-30T01:22:32;21.27;;;9.45;;
51304;SDS011;37392;50.964;6.952;2024-01-30T01:24:59;21.00;;;10.48;;
51304;SDS011;37392;50.964;6.952;2024-01-30T01:27:25;29.80;;;11.73;;
51304;SDS011;37392;50.964;6.952;2024-01-30T01:29:51;24.77;;;11.10;;
51304;SDS011;37392;50.964;6.952;2024-01-30T01:32:17;20.77;;;11.32;;
51304;SDS011;37392;50.964;6.952;2024-01-30T01:34:43;30.17;;;10.82;;
51304;SDS011;37392;50.964;6.952;2024-01-30T01:37:09;21.98;;;10.57;;
51304;SDS011;37392;50.964;6.952;2024-01-30T01:39:34;17.70;;;9.90;;
51304;SDS011;37392;50.964;6.952;2024-01-30T01:42:00;24.45;;;10.38;;
51304;SDS011;37392;50.964;6.952;2024-01-30T01:44:25;20.15;;;10.38;;
51304;SDS011;37392;50.964;6.952;2024-01-30T01:46:51;23.35;;;10.07;;
51304;SDS011;37392;50.964;6.952;2024-01-30T01:49:19;16.98;;;10.07;;
51304;SDS011;37392;50.964;6.952;2024-01-30T01:51:52;19.27;;;9.85;;
51304;SDS011;37392;50.964;6.952;2024-01-30T01:54:21;21.67;;;10.75;;
51304;SDS011;37392;50.964;6.952;2024-01-30T01:56:48;25.60;;;9.27;;
51304;SDS011;37392;50.964;6.952;2024-01-30T01:59:14;17.88;;;10.23;;
51304;SDS011;37392;50.964;6.952;2024-01-30T02:01:40;20.35;;;10.38;;
51304;SDS011;37392;50.964;6.952;2024-01-30T02:04:06;21.23;;;10.15;;
51304;SDS011;37392;50.964;6.952;2024-01-30T02:06:33;17.10;;;9.73;;
51304;SDS011;37392;50.964;6.952;2024-01-30T02:08:59;18.08;;;10.57;;
51304;SDS011;37392;50.964;6.952;2024-01-30T02:11:25;19.52;;;11.23;;
51304;SDS011;37392;50.964;6.952;2024-01-30T02:13:51;23.85;;;10.55;;
51304;SDS011;37392;50.964;6.952;2024-01-30T02:16:17;15.80;;;8.93;;
51304;SDS011;37392;50.964;6.952;2024-01-30T02:18:43;25.45;;;9.43;;
51304;SDS011;37392;50.964;6.952;2024-01-30T02:21:12;15.80;;;8.40;;
51304;SDS011;37392;50.964;6.952;2024-01-30T02:23:41;19.23;;;9.63;;
51304;SDS011;37392;50.964;6.952;2024-01-30T02:26:09;25.33;;;9.23;;
51304;SDS011;37392;50.964;6.952;2024-01-30T02:28:36;18.02;;;9.48;;
51304;SDS011;37392;50.964;6.952;2024-01-30T02:31:02;25.13;;;9.95;;
51304;SDS011;37392;50.964;6.952;2024-01-30T02:33:28;12.02;;;8.57;;
51304;SDS011;37392;50.964;6.952;2024-01-30T02:35:54;24.15;;;9.02;;
51304;SDS011;37392;50.964;6.952;2024-01-30T02:38:20;22.13;;;9.95;;
51304;SDS011;37392;50.964;6.952;2024-01-30T02:40:45;22.40;;;10.68;;
51304;SDS011;37392;50.964;6.952;2024-01-30T02:43:11;24.10;;;9.02;;
51304;SDS011;37392;50.964;6.952;2024-01-30T02:45:37;17.95;;;9.13;;
51304;SDS011;37392;50.964;6.952;2024-01-30T02:48:03;19.42;;;9.07;;
51304;SDS011;37392;50.964;6.952;2024-01-30T02:50:28;17.40;;;9.07;;
51304;SDS011;37392;50.964;6.952;2024-01-30T02:52:54;19.38;;;9.45;;
51304;SDS011;37392;50.964;6.952;2024-01-30T02:55:19;18.80;;;8.82;;
51304;SDS011;37392;50.964;6.952;2024-01-30T02:57:45;19.35;;;8.55;;
51304;SDS011;37392;50.964;6.952;2024-01-30T03:00:11;18.60;;;9.18;;
51304;SDS011;37392;50.964;6.952;2024-01-30T03:02:37;19.13;;;10.60;;
51304;SDS011;37392;50.964;6.952;2024-01-30T03:05:03;17.83;;;9.70;;
51304;SDS011;37392;50.964;6.952;2024-01-30T03:07:30;16.25;;;8.73;;
51304;SDS011;37392;50.964;6.952;2024-01-30T03:09:55;16.80;;;9.48;;
51304;SDS011;37392;50.964;6.952;2024-01-30T03:12:21;16.58;;;9.68;;
51304;SDS011;37392;50.964;6.952;2024-01-30T03:14:47;15.48;;;9.90;;
51304;SDS011;37392;50.964;6.952;2024-01-30T03:17:14;23.67;;;10.05;;
51304;SDS011;37392;50.964;6.952;2024-01-30T03:19:39;21.15;;;9.07;;
51304;SDS011;37392;50.964;6.952;2024-01-30T03:22:05;19.73;;;9.13;;
51304;SDS011;37392;50.964;6.952;2024-01-30T03:24:31;21.05;;;8.85;;
51304;SDS011;37392;50.964;6.952;2024-01-30T03:26:56;27.27;;;10.15;;
51304;SDS011;37392;50.964;6.952;2024-01-30T03:29:22;19.90;;;9.30;;
51304;SDS011;37392;50.964;6.952;2024-01-30T03:31:47;18.83;;;8.80;;
51304;SDS011;37392;50.964;6.952;2024-01-30T03:34:13;18.40;;;9.18;;
51304;SDS011;37392;50.964;6.952;2024-01-30T03:36:38;16.30;;;8.40;;
51304;SDS011;37392;50.964;6.952;2024-01-30T03:39:04;15.30;;;8.52;;
51304;SDS011;37392;50.964;6.952;2024-01-30T03:41:29;17.77;;;8.30;;
51304;SDS011;37392;50.964;6.952;2024-01-30T03:43:55;14.40;;;8.55;;
51304;SDS011;37392;50.964;6.952;2024-01-30T03:46:21;22.38;;;9.43;;
51304;SDS011;37392;50.964;6.952;2024-01-30T03:48:46;17.30;;;8.70;;
51304;SDS011;37392;50.964;6.952;2024-01-30T03:51:12;18.73;;;9.13;;
51304;SDS011;37392;50.964;6.952;2024-01-30T03:53:44;19.88;;;9.75;;
51304;SDS011;37392;50.964;6.952;2024-01-30T03:56:11;25.65;;;9.13;;
51304;SDS011;37392;50.964;6.952;2024-01-30T03:58:38;16.95;;;9.57;;
51304;SDS011;37392;50.964;6.952;2024-01-30T04:01:04;22.23;;;8.20;;
51304;SDS011;37392;50.964;6.952;2024-01-30T04:03:29;15.85;;;8.45;;
51304;SDS011;37392;50.964;6.952;2024-01-30T04:05:55;16.90;;;8.52;;
51304;SDS011;37392;50.964;6.952;2024-01-30T04:08:20;19.27;;;10.35;;
51304;SDS011;37392;50.964;6.952;2024-01-30T04:10:46;20.20;;;9.23;;
51304;SDS011;37392;50.964;6.952;2024-01-30T04:13:12;19.83;;;9.70;;
51304;SDS011;37392;50.964;6.952;2024-01-30T04:15:38;21.33;;;9.52;;
51304;SDS011;37392;50.964;6.952;2024-01-30T04:18:04;19.33;;;9.43;;
51304;SDS011;37392;50.964;6.952;2024-01-30T04:20:30;21.23;;;10.23;;
51304;SDS011;37392;50.964;6.952;2024-01-30T04:22:56;24.63;;;8.98;;
51304;SDS011;37392;50.964;6.952;2024-01-30T04:25:21;17.98;;;10.93;;
51304;SDS011;37392;50.964;6.952;2024-01-30T04:27:47;20.45;;;10.23;;
51304;SDS011;37392;50.964;6.952;2024-01-30T04:30:12;18.70;;;10.25;;
51304;SDS011;37392;50.964;6.952;2024-01-30T04:32:38;18.00;;;9.57;;
51304;SDS011;37392;50.964;6.952;2024-01-30T04:35:04;17.30;;;9.27;;
51304;SDS011;37392;50.964;6.952;2024-01-30T04:37:30;18.33;;;10.70;;
51304;SDS011;37392;50.964;6.952;2024-01-30T04:39:56;20.55;;;9.25;;
51304;SDS011;37392;50.964;6.952;2024-01-30T04:42:22;20.00;;;10.52;;
51304;SDS011;37392;50.964;6.952;2024-01-30T04:44:47;18.98;;;10.40;;
51304;SDS011;37392;50.964;6.952;2024-01-30T04:47:13;20.15;;;10.48;;
51304;SDS011;37392;50.964;6.952;2024-01-30T04:49:41;17.15;;;10.90;;
51304;SDS011;37392;50.964;6.952;2024-01-30T04:52:08;18.05;;;9.95;;
51304;SDS011;37392;50.964;6.952;2024-01-30T04:54:34;18.55;;;10.13;;
51304;SDS011;37392;50.964;6.952;2024-01-30T04:57:03;20.60;;;11.13;;
51304;SDS011;37392;50.964;6.952;2024-01-30T04:59:33;22.75;;;10.10;;
51304;SDS011;37392;50.964;6.952;2024-01-30T05:01:59;21.13;;;10.20;;
51304;SDS011;37392;50.964;6.952;2024-01-30T05:04:24;23.63;;;10.55;;
51304;SDS011;37392;50.964;6.952;2024-01-30T05:06:50;22.73;;;11.27;;
51304;SDS011;37392;50.964;6.952;2024-01-30T05:09:15;21.92;;;10.13;;
51304;SDS011;37392;50.964;6.952;2024-01-30T05:11:41;24.67;;;11.43;;
51304;SDS011;37392;50.964;6.952;2024-01-30T05:14:06;20.15;;;10.77;;
51304;SDS011;37392;50.964;6.952;2024-01-30T05:16:33;16.42;;;9.65;;
51304;SDS011;37392;50.964;6.952;2024-01-30T05:18:59;25.45;;;10.30;;
51304;SDS011;37392;50.964;6.952;2024-01-30T05:21:25;29.20;;;13.07;;
51304;SDS011;37392;50.964;6.952;2024-01-30T05:23:51;20.02;;;11.30;;
51304;SDS011;37392;50.964;6.952;2024-01-30T05:26:16;24.77;;;11.48;;
51304;SDS011;37392;50.964;6.952;2024-01-30T05:28:42;26.95;;;12.20;;
51304;SDS011;37392;50.964;6.952;2024-01-30T05:31:09;20.23;;;11.68;;
51304;SDS011;37392;50.964;6.952;2024-01-30T05:33:35;29.23;;;12.27;;
51304;SDS011;37392;50.964;6.952;2024-01-30T05:36:00;20.77;;;11.55;;
51304;SDS011;37392;50.964;6.952;2024-01-30T05:38:26;17.35;;;10.88;;
51304;SDS011;37392;50.964;6.952;2024-01-30T05:40:52;25.63;;;11.38;;
51304;SDS011;37392;50.964;6.952;2024-01-30T05:43:17;20.40;;;10.18;;
51304;SDS011;37392;50.964;6.952;2024-01-30T05:45:43;28.33;;;12.23;;
51304;SDS011;37392;50.964;6.952;2024-01-30T05:48:09;21.95;;;11.55;;
51304;SDS011;37392;50.964;6.952;2024-01-30T05:50:35;23.38;;;11.32;;
51304;SDS011;37392;50.964;6.952;2024-01-30T05:53:00;24.75;;;10.45;;
51304;SDS011;37392;50.964;6.952;2024-01-30T05:55:26;21.55;;;11.27;;
51304;SDS011;37392;50.964;6.952;2024-01-30T05:57:51;24.25;;;10.77;;
51304;SDS011;37392;50.964;6.952;2024-01-30T06:00:17;22.17;;;9.95;;
51304;SDS011;37392;50.964;6.952;2024-01-30T06:02:43;21.33;;;10.43;;
51304;SDS011;37392;50.964;6.952;2024-01-30T06:05:09;22.17;;;10.98;;
51304;SDS011;37392;50.964;6.952;2024-01-30T06:07:35;17.17;;;9.23;;
51304;SDS011;37392;50.964;6.952;2024-01-30T06:10:00;25.00;;;11.07;;
51304;SDS011;37392;50.964;6.952;2024-01-30T06:12:27;27.95;;;11.02;;
51304;SDS011;37392;50.964;6.952;2024-01-30T06:14:53;19.98;;;9.77;;
51304;SDS011;37392;50.964;6.952;2024-01-30T06:17:21;19.20;;;10.38;;
51304;SDS011;37392;50.964;6.952;2024-01-30T06:19:48;21.23;;;10.15;;
51304;SDS011;37392;50.964;6.952;2024-01-30T06:22:14;23.02;;;11.32;;
51304;SDS011;37392;50.964;6.952;2024-01-30T06:24:40;25.90;;;10.57;;
51304;SDS011;37392;50.964;6.952;2024-01-30T06:27:06;25.85;;;11.43;;
51304;SDS011;37392;50.964;6.952;2024-01-30T06:29:31;20.67;;;10.38;;
51304;SDS011;37392;50.964;6.952;2024-01-30T06:31:57;20.88;;;11.13;;
51304;SDS011;37392;50.964;6.952;2024-01-30T06:34:23;22.27;;;11.23;;
51304;SDS011;37392;50.964;6.952;2024-01-30T06:36:48;19.13;;;10.50;;
51304;SDS011;37392;50.964;6.952;2024-01-30T06:39:14;26.95;;;11.35;;
51304;SDS011;37392;50.964;6.952;2024-01-30T06:41:39;19.90;;;10.75;;
51304;SDS011;37392;50.964;6.952;2024-01-30T06:44:05;20.70;;;11.07;;
51304;SDS011;37392;50.964;6.952;2024-01-30T06:46:31;17.52;;;10.63;;
51304;SDS011;37392;50.964;6.952;2024-01-30T06:48:57;17.90;;;10.73;;
51304;SDS011;37392;50.964;6.952;2024-01-30T06:51:23;30.73;;;10.77;;
51304;SDS011;37392;50.964;6.952;2024-01-30T06:53:48;20.98;;;11.63;;
51304;SDS011;37392;50.964;6.952;2024-01-30T06:56:14;21.52;;;11.07;;
51304;SDS011;37392;50.964;6.952;2024-01-30T06:58:45;21.23;;;10.57;;
51304;SDS011;37392;50.964;6.952;2024-01-30T07:01:14;22.75;;;10.70;;
51304;SDS011;37392;50.964;6.952;2024-01-30T07:03:41;26.42;;;10.65;;
51304;SDS011;37392;50.964;6.952;2024-01-30T07:06:07;24.40;;;10.38;;
51304;SDS011;37392;50.964;6.952;2024-01-30T07:08:33;25.35;;;11.07;;
51304;SDS011;37392;50.964;6.952;2024-01-30T07:10:58;19.65;;;10.25;;
51304;SDS011;37392;50.964;6.952;2024-01-30T07:13:24;19.63;;;11.38;;
51304;SDS011;37392;50.964;6.952;2024-01-30T07:15:50;17.15;;;11.10;;
51304;SDS011;37392;50.964;6.952;2024-01-30T07:18:16;21.50;;;10.75;;
51304;SDS011;37392;50.964;6.952;2024-01-30T07:20:41;24.52;;;10.20;;
51304;SDS011;37392;50.964;6.952;2024-01-30T07:23:11;19.15;;;10.57;;
51304;SDS011;37392;50.964;6.952;2024-01-30T07:25:42;19.08;;;10.15;;
51304;SDS011;37392;50.964;6.952;2024-01-30T07:28:10;17.08;;;10.73;;
51304;SDS011;37392;50.964;6.952;2024-01-30T07:30:37;22.75;;;11.23;;
51304;SDS011;37392;50.964;6.952;2024-01-30T07:33:03;23.02;;;10.57;;
51304;SDS011;37392;50.964;6.952;2024-01-30T07:35:28;20.27;;;10.95;;
51304;SDS011;37392;50.964;6.952;2024-01-30T07:37:54;18.85;;;9.38;;
51304;SDS011;37392;50.964;6.952;2024-01-30T07:40:19;21.27;;;10.40;;
51304;SDS011;37392;50.964;6.952;2024-01-30T07:42:45;25.52;;;10.23;;
51304;SDS011;37392;50.964;6.952;2024-01-30T07:45:10;17.65;;;10.07;;
51304;SDS011;37392;50.964;6.952;2024-01-30T07:47:36;19.73;;;9.48;;
51304;SDS011;37392;50.964;6.952;2024-01-30T07:50:01;18.98;;;9.93;;
51304;SDS011;37392;50.964;6.952;2024-01-30T07:52:27;23.95;;;10.90;;
51304;SDS011;37392;50.964;6.952;2024-01-30T07:54:53;22.15;;;9.68;;
51304;SDS011;37392;50.964;6.952;2024-01-30T07:57:20;23.65;;;9.30;;
51304;SDS011;37392;50.964;6.952;2024-01-30T07:59:45;23.08;;;10.48;;
51304;SDS011;37392;50.964;6.952;2024-01-30T08:02:14;18.20;;;9.98;;
51304;SDS011;37392;50.964;6.952;2024-01-30T08:04:39;15.93;;;9.70;;
51304;SDS011;37392;50.964;6.952;2024-01-30T08:07:05;17.90;;;9.68;;
51304;SDS011;37392;50.964;6.952;2024-01-30T08:09:30;19.52;;;9.75;;
51304;SDS011;37392;50.964;6.952;2024-01-30T08:11:56;17.85;;;8.85;;
51304;SDS011;37392;50.964;6.952;2024-01-30T08:14:21;21.10;;;10.05;;
51304;SDS011;37392;50.964;6.952;2024-01-30T08:16:47;19.83;;;9.32;;
51304;SDS011;37392;50.964;6.952;2024-01-30T08:19:14;21.48;;;9.20;;
51304;SDS011;37392;50.964;6.952;2024-01-30T08:21:40;23.98;;;9.27;;
51304;SDS011;37392;50.964;6.952;2024-01-30T08:24:06;20.13;;;9.70;;
51304;SDS011;37392;50.964;6.952;2024-01-30T08:26:32;28.20;;;9.95;;
51304;SDS011;37392;50.964;6.952;2024-01-30T08:28:58;20.73;;;10.38;;
51304;SDS011;37392;50.964;6.952;2024-01-30T08:31:24;22.48;;;9.68;;
51304;SDS011;37392;50.964;6.952;2024-01-30T08:33:50;18.42;;;9.32;;
51304;SDS011;37392;50.964;6.952;2024-01-30T08:36:16;32.58;;;9.95;;
51304;SDS011;37392;50.964;6.952;2024-01-30T08:38:42;21.27;;;9.25;;
51304;SDS011;37392;50.964;6.952;2024-01-30T08:41:08;17.50;;;9.02;;
51304;SDS011;37392;50.964;6.952;2024-01-30T08:43:33;24.77;;;9.70;;
51304;SDS011;37392;50.964;6.952;2024-01-30T08:45:59;20.80;;;9.40;;
51304;SDS011;37392;50.964;6.952;2024-01-30T08:48:26;20.15;;;9.75;;
51304;SDS011;37392;50.964;6.952;2024-01-30T08:50:52;17.85;;;9.73;;
51304;SDS011;37392;50.964;6.952;2024-01-30T08:53:18;19.05;;;8.68;;
51304;SDS011;37392;50.964;6.952;2024-01-30T08:55:44;24.58;;;8.57;;
51304;SDS011;37392;50.964;6.952;2024-01-30T08:58:09;16.70;;;9.05;;
51304;SDS011;37392;50.964;6.952;2024-01-30T09:00:35;24.92;;;8.57;;
51304;SDS011;37392;50.964;6.952;2024-01-30T09:03:01;20.77;;;9.55;;
51304;SDS011;37392;50.964;6.952;2024-01-30T09:05:27;26.90;;;9.82;;
51304;SDS011;37392;50.964;6.952;2024-01-30T09:07:52;24.45;;;9.93;;
51304;SDS011;37392;50.964;6.952;2024-01-30T09:10:18;17.20;;;9.23;;
51304;SDS011;37392;50.964;6.952;2024-01-30T09:12:44;19.65;;;9.65;;
51304;SDS011;37392;50.964;6.952;2024-01-30T09:15:09;16.33;;;9.02;;
51304;SDS011;37392;50.964;6.952;2024-01-30T09:17:35;15.02;;;8.35;;
51304;SDS011;37392;50.964;6.952;2024-01-30T09:20:01;21.17;;;8.93;;
51304;SDS011;37392;50.964;6.952;2024-01-30T09:22:27;25.83;;;10.07;;
51304;SDS011;37392;50.964;6.952;2024-01-30T09:24:52;15.05;;;8.68;;
51304;SDS011;37392;50.964;6.952;2024-01-30T09:27:18;18.83;;;9.00;;
51304;SDS011;37392;50.964;6.952;2024-01-30T09:29:43;17.48;;;8.52;;
51304;SDS011;37392;50.964;6.952;2024-01-30T09:32:12;20.25;;;8.88;;
51304;SDS011;37392;50.964;6.952;2024-01-30T09:34:37;11.88;;;8.38;;
51304;SDS011;37392;50.964;6.952;2024-01-30T09:37:04;17.70;;;9.00;;
51304;SDS011;37392;50.964;6.952;2024-01-30T09:39:29;18.77;;;8.35;;
51304;SDS011;37392;50.964;6.952;2024-01-30T09:44:59;20.92;;;9.00;;
51304;SDS011;37392;50.964;6.952;2024-01-30T09:47:26;21.35;;;8.13;;
51304;SDS011;37392;50.964;6.952;2024-01-30T09:49:52;20.35;;;8.65;;
51304;SDS011;37392;50.964;6.952;2024-01-30T09:52:18;17.85;;;8.15;;
51304;SDS011;37392;50.964;6.952;2024-01-30T09:54:44;22.67;;;8.55;;
51304;SDS011;37392;50.964;6.952;2024-01-30T09:57:11;16.52;;;7.97;;
51304;SDS011;37392;50.964;6.952;2024-01-30T09:59:37;16.92;;;8.93;;
51304;SDS011;37392;50.964;6.952;2024-01-30T10:02:02;20.38;;;9.38;;
51304;SDS011;37392;50.964;6.952;2024-01-30T10:04:29;20.48;;;8.23;;
51304;SDS011;37392;50.964;6.952;2024-01-30T10:06:55;20.73;;;8.50;;
51304;SDS011;37392;50.964;6.952;2024-01-30T10:09:23;19.17;;;8.60;;
51304;SDS011;37392;50.964;6.952;2024-01-30T10:11:50;16.55;;;7.53;;
51304;SDS011;37392;50.964;6.952;2024-01-30T10:14:16;12.23;;;7.60;;
51304;SDS011;37392;50.964;6.952;2024-01-30T10:16:42;16.77;;;7.88;;
51304;SDS011;37392;50.964;6.952;2024-01-30T10:19:09;23.98;;;8.85;;
51304;SDS011;37392;50.964;6.952;2024-01-30T10:21:34;19.52;;;8.07;;
51304;SDS011;37392;50.964;6.952;2024-01-30T10:24:00;15.32;;;7.82;;
51304;SDS011;37392;50.964;6.952;2024-01-30T10:26:26;18.50;;;8.95;;
51304;SDS011;37392;50.964;6.952;2024-01-30T10:28:51;15.90;;;8.07;;
51304;SDS011;37392;50.964;6.952;2024-01-30T10:31:17;15.13;;;8.52;;
51304;SDS011;37392;50.964;6.952;2024-01-30T10:33:44;16.38;;;8.43;;
51304;SDS011;37392;50.964;6.952;2024-01-30T10:36:11;13.13;;;8.40;;
51304;SDS011;37392;50.964;6.952;2024-01-30T10:38:40;16.20;;;8.10;;
51304;SDS011;37392;50.964;6.952;2024-01-30T10:41:08;17.27;;;10.07;;
51304;SDS011;37392;50.964;6.952;2024-01-30T10:43:42;19.55;;;8.70;;
51304;SDS011;37392;50.964;6.952;2024-01-30T10:48:44;13.68;;;7.53;;
51304;SDS011;37392;50.964;6.952;2024-01-30T10:51:16;15.50;;;8.57;;
51304;SDS011;37392;50.964;6.952;2024-01-30T10:53:43;18.85;;;8.50;;
51304;SDS011;37392;50.964;6.952;2024-01-30T10:56:11;22.30;;;8.75;;
51304;SDS011;37392;50.964;6.952;2024-01-30T10:58:38;22.25;;;9.00;;
51304;SDS011;37392;50.964;6.952;2024-01-30T11:01:04;21.77;;;9.05;;
51304;SDS011;37392;50.964;6.952;2024-01-30T11:03:31;14.90;;;8.13;;
51304;SDS011;37392;50.964;6.952;2024-01-30T11:06:00;15.52;;;7.75;;
51304;SDS011;37392;50.964;6.952;2024-01-30T11:08:26;18.02;;;8.13;;
51304;SDS011;37392;50.964;6.952;2024-01-30T11:10:57;24.00;;;9.63;;
51304;SDS011;37392;50.964;6.952;2024-01-30T11:13:26;16.35;;;8.63;;
51304;SDS011;37392;50.964;6.952;2024-01-30T11:15:54;15.38;;;8.30;;
51304;SDS011;37392;50.964;6.952;2024-01-30T11:18:23;14.43;;;7.97;;
51304;SDS011;37392;50.964;6.952;2024-01-30T11:20:55;15.23;;;7.68;;
51304;SDS011;37392;50.964;6.952;2024-01-30T11:23:23;17.30;;;8.05;;
51304;SDS011;37392;50.964;6.952;2024-01-30T11:25:49;20.42;;;8.48;;
51304;SDS011;37392;50.964;6.952;2024-01-30T11:28:17;23.65;;;8.57;;
51304;SDS011;37392;50.964;6.952;2024-01-30T11:30:43;14.68;;;8.23;;
51304;SDS011;37392;50.964;6.952;2024-01-30T11:35:40;17.77;;;7.80;;
51304;SDS011;37392;50.964;6.952;2024-01-30T11:40:34;18.63;;;7.90;;
51304;SDS011;37392;50.964;6.952;2024-01-30T11:43:01;24.05;;;7.07;;
51304;SDS011;37392;50.964;6.952;2024-01-30T11:45:32;15.60;;;7.13;;
51304;SDS011;37392;50.964;6.952;2024-01-30T11:47:58;13.05;;;7.25;;
51304;SDS011;37392;50.964;6.952;2024-01-30T11:50:28;20.08;;;8.88;;
51304;SDS011;37392;50.964;6.952;2024-01-30T11:53:04;15.23;;;8.43;;
51304;SDS011;37392;50.964;6.952;2024-01-30T11:55:30;18.23;;;8.32;;
51304;SDS011;37392;50.964;6.952;2024-01-30T11:57:56;18.83;;;7.00;;
51304;SDS011;37392;50.964;6.952;2024-01-30T12:00:23;38.38;;;10.10;;
51304;SDS011;37392;50.964;6.952;2024-01-30T12:02:50;25.15;;;8.25;;
51304;SDS011;37392;50.964;6.952;2024-01-30T12:05:23;15.05;;;8.73;;
51304;SDS011;37392;50.964;6.952;2024-01-30T12:07:53;22.10;;;9.00;;
51304;SDS011;37392;50.964;6.952;2024-01-30T12:10:19;19.55;;;7.38;;
51304;SDS011;37392;50.964;6.952;2024-01-30T12:12:47;15.07;;;7.93;;
51304;SDS011;37392;50.964;6.952;2024-01-30T12:15:14;17.50;;;7.72;;
51304;SDS011;37392;50.964;6.952;2024-01-30T12:17:41;32.50;;;8.48;;
51304;SDS011;37392;50.964;6.952;2024-01-30T12:20:08;19.95;;;8.00;;
51304;SDS011;37392;50.964;6.952;2024-01-30T12:22:40;24.25;;;8.48;;
51304;SDS011;37392;50.964;6.952;2024-01-30T12:25:08;25.27;;;8.20;;
51304;SDS011;37392;50.964;6.952;2024-01-30T12:27:47;22.88;;;8.90;;
51304;SDS011;37392;50.964;6.952;2024-01-30T12:30:15;19.15;;;7.72;;
51304;SDS011;37392;50.964;6.952;2024-01-30T12:32:42;13.68;;;5.95;;
51304;SDS011;37392;50.964;6.952;2024-01-30T12:35:13;17.92;;;8.02;;
51304;SDS011;37392;50.964;6.952;2024-01-30T12:37:41;26.25;;;8.75;;
51304;SDS011;37392;50.964;6.952;2024-01-30T12:40:09;23.77;;;9.23;;
51304;SDS011;37392;50.964;6.952;2024-01-30T12:42:36;27.15;;;8.02;;
51304;SDS011;37392;50.964;6.952;2024-01-30T12:45:02;16.13;;;7.60;;
51304;SDS011;37392;50.964;6.952;2024-01-30T12:47:29;19.50;;;8.73;;
51304;SDS011;37392;50.964;6.952;2024-01-30T12:49:55;18.20;;;7.38;;
51304;SDS011;37392;50.964;6.952;2024-01-30T12:52:21;20.67;;;7.55;;
51304;SDS011;37392;50.964;6.952;2024-01-30T12:54:48;21.17;;;8.65;;
51304;SDS011;37392;50.964;6.952;2024-01-30T12:57:14;34.08;;;9.63;;
51304;SDS011;37392;50.964;6.952;2024-01-30T12:59:40;20.30;;;7.63;;
51304;SDS011;37392;50.964;6.952;2024-01-30T13:02:06;12.85;;;7.03;;
51304;SDS011;37392;50.964;6.952;2024-01-30T13:04:33;12.18;;;7.13;;
51304;SDS011;37392;50.964;6.952;2024-01-30T13:06:59;14.55;;;7.88;;
51304;SDS011;37392;50.964;6.952;2024-01-30T13:09:25;13.10;;;6.57;;
51304;SDS011;37392;50.964;6.952;2024-01-30T13:11:51;13.77;;;6.90;;
51304;SDS011;37392;50.964;6.952;2024-01-30T13:14:17;21.40;;;9.45;;
51304;SDS011;37392;50.964;6.952;2024-01-30T13:16:44;30.77;;;14.25;;
51304;SDS011;37392;50.964;6.952;2024-01-30T13:19:10;26.10;;;9.13;;
51304;SDS011;37392;50.964;6.952;2024-01-30T13:21:36;25.48;;;8.23;;
51304;SDS011;37392;50.964;6.952;2024-01-30T13:24:01;28.60;;;8.07;;
51304;SDS011;37392;50.964;6.952;2024-01-30T13:26:27;24.23;;;9.63;;
51304;SDS011;37392;50.964;6.952;2024-01-30T13:28:53;21.98;;;9.25;;
51304;SDS011;37392;50.964;6.952;2024-01-30T13:31:19;24.77;;;7.25;;
51304;SDS011;37392;50.964;6.952;2024-01-30T13:33:45;17.33;;;7.32;;
51304;SDS011;37392;50.964;6.952;2024-01-30T13:36:11;11.25;;;6.35;;
51304;SDS011;37392;50.964;6.952;2024-01-30T13:38:37;25.02;;;6.65;;
51304;SDS011;37392;50.964;6.952;2024-01-30T13:41:04;15.07;;;5.47;;
51304;SDS011;37392;50.964;6.952;2024-01-30T13:43:30;23.52;;;6.47;;
51304;SDS011;37392;50.964;6.952;2024-01-30T13:45:55;24.52;;;7.80;;
51304;SDS011;37392;50.964;6.952;2024-01-30T13:48:21;13.32;;;7.07;;
51304;SDS011;37392;50.964;6.952;2024-01-30T13:50:46;14.70;;;5.50;;
51304;SDS011;37392;50.964;6.952;2024-01-30T13:53:13;9.68;;;3.90;;
51304;SDS011;37392;50.964;6.952;2024-01-30T13:55:39;15.50;;;5.25;;
51304;SDS011;37392;50.964;6.952;2024-01-30T13:58:05;24.30;;;8.13;;
51304;SDS011;37392;50.964;6.952;2024-01-30T14:00:31;25.77;;;7.93;;
51304;SDS011;37392;50.964;6.952;2024-01-30T14:02:57;10.88;;;4.30;;
51304;SDS011;37392;50.964;6.952;2024-01-30T14:05:23;29.80;;;7.05;;
51304;SDS011;37392;50.964;6.952;2024-01-30T14:07:50;19.05;;;5.20;;
51304;SDS011;37392;50.964;6.952;2024-01-30T14:10:17;20.00;;;5.88;;
51304;SDS011;37392;50.964;6.952;2024-01-30T14:12:43;16.98;;;5.60;;
51304;SDS011;37392;50.964;6.952;2024-01-30T14:15:09;12.07;;;5.40;;
51304;SDS011;37392;50.964;6.952;2024-01-30T14:17:36;10.68;;;4.72;;
51304;SDS011;37392;50.964;6.952;2024-01-30T14:20:05;9.93;;;5.20;;
51304;SDS011;37392;50.964;6.952;2024-01-30T14:22:33;13.45;;;4.57;;
51304;SDS011;37392;50.964;6.952;2024-01-30T14:24:59;15.05;;;5.90;;
51304;SDS011;37392;50.964;6.952;2024-01-30T14:27:27;10.50;;;5.47;;
51304;SDS011;37392;50.964;6.952;2024-01-30T14:29:52;10.82;;;4.65;;
51304;SDS011;37392;50.964;6.952;2024-01-30T14:32:18;10.45;;;4.82;;
51304;SDS011;37392;50.964;6.952;2024-01-30T14:34:43;19.48;;;7.10;;